Time;durP1;ratioP1;P1;durP2;ratioP2;P2;SDS_P1;SDS_P2;PMS_P1;PMS_P2;Temp;Humidity;BMP_temperature;BMP_pressure;BME280_temperature;BME280_humidity;BME280_pressure;Samples;Min_cycle;Max_cycle;Signal;HPM_P1;HPM_P2
2024/04/02 00:01:10;;;;;;;16.50;14.45;;;;;;;;;;5043791;28;20112;-50
2024/04/02 00:03:35;;;;;;;18.90;16.77;;;;;;;;;;5042708;28;20419;-50
2024/04/02 00:06:01;;;;;;;16.35;14.70;;;;;;;;;;5045065;28;20102;-57
2024/04/02 00:08:29;;;;;;;19.23;17.30;;;;;;;;;;5043189;28;20016;-57
2024/04/02 00:10:59;;;;;;;17.30;15.73;;;;;;;;;;5044990;28;20108;-53
2024/04/02 00:13:25;;;;;;;16.85;15.15;;;;;;;;;;5058629;28;20025;-51
2024/04/02 00:15:50;;;;;;;17.65;15.95;;;;;;;;;;5028921;28;20043;-54
2024/04/02 00:18:15;;;;;;;17.00;15.23;;;;;;;;;;5027466;28;20057;-52
2024/04/02 00:20:41;;;;;;;17.75;15.90;;;;;;;;;;5034945;28;20024;-52
2024/04/02 00:23:06;;;;;;;18.08;15.95;;;;;;;;;;5046646;28;20071;-56
2024/04/02 00:25:32;;;;;;;18.00;16.15;;;;;;;;;;5048493;28;20021;-56
2024/04/02 00:27:57;;;;;;;17.88;16.13;;;;;;;;;;5046653;28;20032;-52
2024/04/02 00:30:26;;;;;;;17.80;16.05;;;;;;;;;;5028778;28;20468;-56
2024/04/02 00:32:51;;;;;;;17.13;15.38;;;;;;;;;;5028211;28;20028;-51
2024/04/02 00:35:17;;;;;;;19.00;17.08;;;;;;;;;;5028979;28;20026;-53
2024/04/02 00:37:42;;;;;;;18.95;17.00;;;;;;;;;;5032505;28;20061;-52
2024/04/02 00:40:08;;;;;;;17.08;15.40;;;;;;;;;;5028589;28;20036;-56
2024/04/02 00:42:34;;;;;;;19.05;17.15;;;;;;;;;;5028010;28;20022;-56
2024/04/02 00:44:59;;;;;;;17.63;15.98;;;;;;;;;;5044708;28;20025;-53
2024/04/02 00:47:25;;;;;;;18.35;16.60;;;;;;;;;;5047044;28;20091;-56
2024/04/02 00:49:50;;;;;;;16.85;15.15;;;;;;;;;;5045983;28;20025;-54
2024/04/02 00:52:15;;;;;;;19.10;17.17;;;;;;;;;;5048297;28;20033;-53
2024/04/02 00:54:41;;;;;;;17.58;16.02;;;;;;;;;;5046283;28;20025;-55
2024/04/02 00:57:07;;;;;;;16.20;14.60;;;;;;;;;;5046743;28;20214;-53
2024/04/02 00:59:34;;;;;;;16.00;14.48;;;;;;;;;;5046391;28;20304;-55
2024/04/02 01:02:00;;;;;;;17.88;16.10;;;;;;;;;;5047041;28;20028;-55
2024/04/02 01:04:25;;;;;;;16.30;14.70;;;;;;;;;;5034337;28;20021;-56
2024/04/02 01:06:50;;;;;;;16.33;14.80;;;;;;;;;;5028136;28;20037;-56
2024/04/02 01:09:17;;;;;;;18.08;16.25;;;;;;;;;;5028210;28;20021;-51
2024/04/02 01:11:43;;;;;;;14.82;13.35;;;;;;;;;;5027943;28;20438;-54
2024/04/02 01:14:08;;;;;;;16.80;15.10;;;;;;;;;;5030677;28;20032;-54
2024/04/02 01:16:40;;;;;;;15.27;13.73;;;;;;;;;;5027875;28;20511;-51
2024/04/02 01:19:05;;;;;;;15.85;14.07;;;;;;;;;;5037335;28;20029;-53
2024/04/02 01:21:30;;;;;;;14.38;12.93;;;;;;;;;;5046673;28;20029;-52
2024/04/02 01:23:55;;;;;;;17.20;15.55;;;;;;;;;;5044013;28;20475;-55
2024/04/02 01:26:21;;;;;;;18.30;16.52;;;;;;;;;;5047707;28;20025;-55
2024/04/02 01:28:51;;;;;;;19.38;17.42;;;;;;;;;;5045428;28;20386;-56
2024/04/02 01:31:17;;;;;;;18.60;16.75;;;;;;;;;;5047951;28;20024;-54
2024/04/02 01:33:42;;;;;;;19.00;17.10;;;;;;;;;;5040404;28;20021;-54
2024/04/02 01:36:07;;;;;;;17.95;16.17;;;;;;;;;;5047967;28;20376;-54
2024/04/02 01:38:32;;;;;;;18.95;17.13;;;;;;;;;;5045608;28;20033;-55
2024/04/02 01:40:58;;;;;;;18.65;16.83;;;;;;;;;;5047184;28;20017;-57
2024/04/02 01:43:23;;;;;;;17.70;15.77;;;;;;;;;;5041799;28;20061;-53
2024/04/02 01:45:48;;;;;;;16.08;13.90;;;;;;;;;;5033612;28;20481;-53
2024/04/02 01:48:14;;;;;;;18.38;16.48;;;;;;;;;;5043826;28;20380;-55
2024/04/02 01:50:39;;;;;;;17.50;15.57;;;;;;;;;;5047409;28;20228;-51
2024/04/02 01:53:04;;;;;;;17.42;15.73;;;;;;;;;;5045000;28;20048;-50
2024/04/02 01:55:29;;;;;;;18.73;16.80;;;;;;;;;;5047040;28;20025;-53
2024/04/02 01:57:55;;;;;;;32.90;29.50;;;;;;;;;;5045004;28;20036;-54
2024/04/02 02:00:20;;;;;;;16.77;15.10;;;;;;;;;;5046409;28;20510;-54
2024/04/02 02:02:45;;;;;;;15.30;13.77;;;;;;;;;;5031407;28;20243;-54
2024/04/02 02:05:11;;;;;;;19.67;17.65;;;;;;;;;;5043443;28;20026;-53
2024/04/02 02:07:36;;;;;;;17.50;15.75;;;;;;;;;;5046935;28;20394;-54
2024/04/02 02:10:01;;;;;;;20.58;18.52;;;;;;;;;;5028012;28;20026;-50
2024/04/02 02:12:26;;;;;;;19.45;17.52;;;;;;;;;;5027189;28;20105;-53
2024/04/02 02:14:52;;;;;;;19.65;17.77;;;;;;;;;;5034548;28;20124;-50
2024/04/02 02:17:18;;;;;;;20.65;18.60;;;;;;;;;;5046656;28;20040;-56
2024/04/02 02:19:43;;;;;;;20.98;18.58;;;;;;;;;;5044451;28;20078;-53
2024/04/02 02:22:08;;;;;;;19.00;16.90;;;;;;;;;;5046646;28;20040;-55
2024/04/02 02:24:34;;;;;;;19.30;17.38;;;;;;;;;;5045250;28;20056;-56
2024/04/02 02:26:59;;;;;;;19.50;17.67;;;;;;;;;;5045747;28;20552;-52
2024/04/02 02:29:25;;;;;;;17.73;15.85;;;;;;;;;;5032164;28;20112;-51
2024/04/02 02:31:53;;;;;;;17.58;15.93;;;;;;;;;;5037749;28;20021;-55
2024/04/02 02:34:18;;;;;;;17.65;15.63;;;;;;;;;;5044023;28;20078;-52
2024/04/02 02:36:44;;;;;;;18.52;16.60;;;;;;;;;;5045700;28;20021;-54
2024/04/02 02:39:11;;;;;;;19.17;16.67;;;;;;;;;;5043631;28;20411;-52
2024/04/02 02:41:36;;;;;;;19.30;17.27;;;;;;;;;;5046065;28;20013;-52
2024/04/02 02:44:01;;;;;;;18.75;16.85;;;;;;;;;;5043609;28;20031;-53
2024/04/02 02:46:27;;;;;;;18.25;16.35;;;;;;;;;;5046218;28;20032;-51
2024/04/02 02:48:53;;;;;;;21.98;18.83;;;;;;;;;;5043598;28;20024;-55
2024/04/02 02:51:18;;;;;;;20.17;17.02;;;;;;;;;;5045274;28;20027;-53
2024/04/02 02:53:45;;;;;;;18.77;16.95;;;;;;;;;;5042828;28;20467;-52
2024/04/02 02:56:10;;;;;;;17.52;15.90;;;;;;;;;;5039517;28;20025;-54
2024/04/02 02:58:35;;;;;;;22.55;19.83;;;;;;;;;;5028209;28;20032;-52
2024/04/02 03:01:04;;;;;;;18.08;16.33;;;;;;;;;;5026498;28;20550;-54
2024/04/02 03:03:30;;;;;;;18.80;16.98;;;;;;;;;;5028227;28;20064;-55
2024/04/02 03:05:55;;;;;;;222.48;133.25;;;;;;;;;;5045687;28;20635;-55
2024/04/02 03:08:21;;;;;;;17.13;15.63;;;;;;;;;;5043271;28;20035;-54
2024/04/02 03:10:59;;;;;;;19.33;17.35;;;;;;;;;;5028516;28;20039;-55
2024/04/02 03:13:25;;;;;;;20.63;18.52;;;;;;;;;;5039451;28;20021;-54
2024/04/02 03:15:50;;;;;;;17.05;15.35;;;;;;;;;;5028459;28;20021;-52
2024/04/02 03:18:15;;;;;;;19.10;17.20;;;;;;;;;;5030665;28;20111;-50
2024/04/02 03:20:41;;;;;;;19.52;17.48;;;;;;;;;;5045522;28;20405;-56
2024/04/02 03:23:06;;;;;;;18.90;17.00;;;;;;;;;;5042646;28;20017;-51
2024/04/02 03:25:31;;;;;;;18.60;16.67;;;;;;;;;;5025334;28;20021;-52
2024/04/02 03:27:57;;;;;;;20.73;18.65;;;;;;;;;;5024954;28;20036;-51
2024/04/02 03:30:22;;;;;;;17.88;16.00;;;;;;;;;;5045054;28;20032;-52
2024/04/02 03:32:47;;;;;;;18.02;16.15;;;;;;;;;;5043608;28;20025;-50
2024/04/02 03:35:12;;;;;;;16.92;15.27;;;;;;;;;;5043907;28;20029;-52
2024/04/02 03:37:38;;;;;;;20.48;18.55;;;;;;;;;;5045274;28;20029;-54
2024/04/02 03:40:03;;;;;;;17.85;16.23;;;;;;;;;;5025882;28;21099;-53
2024/04/02 03:42:28;;;;;;;18.67;16.88;;;;;;;;;;5025419;28;20083;-52
2024/04/02 03:44:54;;;;;;;20.23;18.17;;;;;;;;;;5040100;28;20043;-54
2024/04/02 03:47:19;;;;;;;19.58;17.63;;;;;;;;;;5043300;28;20037;-53
2024/04/02 03:49:45;;;;;;;19.88;17.90;;;;;;;;;;5037865;28;20033;-54
2024/04/02 03:52:10;;;;;;;17.77;15.85;;;;;;;;;;5032538;28;20029;-51
2024/04/02 03:54:35;;;;;;;19.38;17.33;;;;;;;;;;5041834;28;20025;-52
2024/04/02 03:57:01;;;;;;;18.45;16.80;;;;;;;;;;5044732;28;20019;-51
2024/04/02 03:59:26;;;;;;;19.23;17.35;;;;;;;;;;5030835;28;20033;-53
2024/04/02 04:01:51;;;;;;;17.35;15.63;;;;;;;;;;5025126;28;20017;-48
2024/04/02 04:04:17;;;;;;;16.98;15.25;;;;;;;;;;5035846;28;20052;-51
2024/04/02 04:06:42;;;;;;;17.63;15.90;;;;;;;;;;5044969;28;20056;-53
2024/04/02 04:09:07;;;;;;;16.85;15.15;;;;;;;;;;5039046;28;20426;-55
2024/04/02 04:11:33;;;;;;;14.13;12.65;;;;;;;;;;5024913;28;20170;-51
2024/04/02 04:14:00;;;;;;;18.58;16.80;;;;;;;;;;5024831;28;20047;-53
2024/04/02 04:16:25;;;;;;;17.92;16.15;;;;;;;;;;5027018;28;20041;-53
2024/04/02 04:18:51;;;;;;;23.40;21.15;;;;;;;;;;5042146;28;20048;-53
2024/04/02 04:21:16;;;;;;;18.38;16.67;;;;;;;;;;5040585;28;20025;-52
2024/04/02 04:23:41;;;;;;;18.77;16.95;;;;;;;;;;5024622;28;20554;-48
2024/04/02 04:26:06;;;;;;;18.45;16.65;;;;;;;;;;5025223;28;20021;-54
2024/04/02 04:28:32;;;;;;;18.67;16.92;;;;;;;;;;5043411;28;20079;-52
2024/04/02 04:31:01;;;;;;;16.83;15.13;;;;;;;;;;5043478;28;20132;-53
2024/04/02 04:33:26;;;;;;;;;;;;;;;;;;5039119;28;20026;-51
2024/04/02 04:35:52;;;;;;;20.00;17.90;;;;;;;;;;5024906;28;19905;-53
2024/04/02 04:38:18;;;;;;;17.85;16.02;;;;;;;;;;5030651;28;20033;-49
2024/04/02 04:40:43;;;;;;;17.30;15.63;;;;;;;;;;5044975;28;20017;-50
2024/04/02 04:43:09;;;;;;;16.15;14.60;;;;;;;;;;5041502;28;20033;-52
2024/04/02 04:45:34;;;;;;;16.52;15.10;;;;;;;;;;5029371;28;20012;-52
2024/04/02 04:47:59;;;;;;;18.73;16.95;;;;;;;;;;5042610;28;20059;-50
2024/04/02 04:50:25;;;;;;;17.40;15.70;;;;;;;;;;5043953;28;20437;-53
2024/04/02 04:52:53;;;;;;;15.05;13.52;;;;;;;;;;5037419;28;20033;-55
2024/04/02 04:55:18;;;;;;;17.67;15.98;;;;;;;;;;5042117;28;20044;-53
2024/04/02 04:57:44;;;;;;;16.80;15.00;;;;;;;;;;5024799;28;20472;-52
2024/04/02 05:00:09;;;;;;;17.73;16.02;;;;;;;;;;5043197;28;20052;-54
2024/04/02 05:02:34;;;;;;;16.08;14.52;;;;;;;;;;5035782;28;20557;-51
2024/04/02 05:05:00;;;;;;;17.02;15.35;;;;;;;;;;5038591;28;20511;-52
2024/04/02 05:07:25;;;;;;;14.45;13.13;;;;;;;;;;5033245;28;20356;-52
2024/04/02 05:09:51;;;;;;;16.23;14.57;;;;;;;;;;5036147;28;20082;-54
2024/04/02 05:12:17;;;;;;;17.75;16.02;;;;;;;;;;5027746;28;20108;-50
2024/04/02 05:14:42;;;;;;;17.92;16.15;;;;;;;;;;5042224;28;20096;-51
2024/04/02 05:17:07;;;;;;;20.48;16.42;;;;;;;;;;5047981;28;20025;-52
2024/04/02 05:19:32;;;;;;;13.80;12.48;;;;;;;;;;5045892;28;20115;-52
2024/04/02 05:21:58;;;;;;;18.13;16.27;;;;;;;;;;5033302;28;20407;-50
2024/04/02 05:24:23;;;;;;;14.02;12.65;;;;;;;;;;5028256;28;20384;-51
2024/04/02 05:26:48;;;;;;;18.15;16.33;;;;;;;;;;5027852;28;20032;-48
2024/04/02 05:29:16;;;;;;;17.33;15.60;;;;;;;;;;5037983;28;20035;-51
2024/04/02 05:31:41;;;;;;;17.52;15.80;;;;;;;;;;5046323;28;20418;-51
2024/04/02 05:34:07;;;;;;;14.32;12.85;;;;;;;;;;5027485;28;20040;-56
2024/04/02 05:36:32;;;;;;;16.40;14.93;;;;;;;;;;5027784;28;20044;-51
2024/04/02 05:38:57;;;;;;;19.17;17.23;;;;;;;;;;5036772;28;20079;-55
2024/04/02 05:41:22;;;;;;;14.77;13.18;;;;;;;;;;5047835;28;20365;-49
2024/04/02 05:43:48;;;;;;;17.77;16.00;;;;;;;;;;5039676;28;20029;-52
2024/04/02 05:46:13;;;;;;;16.73;15.13;;;;;;;;;;5029926;28;20460;-53
2024/04/02 05:48:38;;;;;;;18.05;16.23;;;;;;;;;;5026609;28;20031;-49
2024/04/02 05:51:03;;;;;;;18.05;16.35;;;;;;;;;;5028875;28;20029;-55
2024/04/02 05:53:29;;;;;;;18.42;16.27;;;;;;;;;;5043217;28;20025;-54
2024/04/02 05:55:55;;;;;;;17.35;15.60;;;;;;;;;;5040896;28;20037;-56
2024/04/02 05:58:20;;;;;;;19.88;17.63;;;;;;;;;;5043850;28;20436;-55
2024/04/02 06:00:45;;;;;;;18.15;16.17;;;;;;;;;;5045544;28;20041;-56
2024/04/02 06:03:11;;;;;;;21.38;17.88;;;;;;;;;;5042692;28;20034;-51
2024/04/02 06:05:36;;;;;;;18.13;16.25;;;;;;;;;;5040707;28;20067;-51
2024/04/02 06:08:02;;;;;;;19.38;17.38;;;;;;;;;;5041131;28;20029;-52
2024/04/02 06:10:28;;;;;;;25.00;20.60;;;;;;;;;;5042032;28;20635;-54
2024/04/02 06:12:53;;;;;;;30.58;25.05;;;;;;;;;;5041557;28;20027;-49
2024/04/02 06:15:20;;;;;;;26.13;22.23;;;;;;;;;;5037947;28;20394;-53
2024/04/02 06:17:45;;;;;;;22.42;19.90;;;;;;;;;;5042985;28;20033;-54
2024/04/02 06:20:11;;;;;;;27.80;19.45;;;;;;;;;;5041994;28;20395;-56
2024/04/02 06:22:37;;;;;;;25.95;20.17;;;;;;;;;;5057906;28;20102;-53
2024/04/02 06:25:02;;;;;;;20.40;17.98;;;;;;;;;;5043810;28;20380;-51
2024/04/02 06:27:27;;;;;;;25.38;22.75;;;;;;;;;;5042288;28;20082;-51
2024/04/02 06:29:53;;;;;;;26.42;23.63;;;;;;;;;;5035795;28;20036;-54
2024/04/02 06:32:18;;;;;;;22.23;20.05;;;;;;;;;;5030161;28;20623;-54
2024/04/02 06:34:44;;;;;;;29.70;26.58;;;;;;;;;;5030489;28;20103;-48
2024/04/02 06:37:09;;;;;;;31.38;28.30;;;;;;;;;;5028764;28;20029;-50
2024/04/02 06:39:35;;;;;;;27.48;24.88;;;;;;;;;;5035766;28;20023;-50
2024/04/02 06:42:00;;;;;;;27.05;24.40;;;;;;;;;;5035768;28;20029;-47
2024/04/02 06:44:25;;;;;;;25.65;23.20;;;;;;;;;;5027314;28;20045;-48
2024/04/02 06:46:51;;;;;;;28.92;26.38;;;;;;;;;;5033123;28;20044;-48
2024/04/02 06:49:16;;;;;;;26.38;23.55;;;;;;;;;;5032552;28;20026;-50
2024/04/02 06:51:41;;;;;;;26.58;23.48;;;;;;;;;;5030946;28;20025;-48
2024/04/02 06:54:07;;;;;;;26.30;23.27;;;;;;;;;;5029060;28;20033;-53
2024/04/02 06:56:32;;;;;;;22.90;20.55;;;;;;;;;;5041958;28;20029;-52
2024/04/02 06:58:57;;;;;;;23.58;18.25;;;;;;;;;;5035737;28;20041;-53
2024/04/02 07:01:22;;;;;;;18.88;16.98;;;;;;;;;;5035230;28;20026;-53
2024/04/02 07:03:48;;;;;;;24.67;22.17;;;;;;;;;;5034618;28;20032;-52
2024/04/02 07:06:13;;;;;;;23.05;20.80;;;;;;;;;;5026936;28;20596;-51
2024/04/02 07:08:40;;;;;;;22.85;18.85;;;;;;;;;;5030962;28;20613;-50
2024/04/02 07:11:07;;;;;;;35.75;31.85;;;;;;;;;;5033236;28;20016;-55
2024/04/02 07:13:33;;;;;;;47.15;43.90;;;;;;;;;;5041232;28;20028;-54
2024/04/02 07:16:01;;;;;;;46.53;43.13;;;;;;;;;;5029566;28;20025;-55
2024/04/02 07:18:32;;;;;;;37.58;34.75;;;;;;;;;;5036291;28;20036;-56
2024/04/02 07:20:58;;;;;;;41.42;38.40;;;;;;;;;;5022851;28;20032;-54
2024/04/02 07:23:23;;;;;;;25.33;23.13;;;;;;;;;;5025285;28;20407;-55
2024/04/02 07:25:49;;;;;;;33.33;30.33;;;;;;;;;;5039221;28;20041;-51
2024/04/02 07:28:15;;;;;;;39.20;36.25;;;;;;;;;;5032864;28;20022;-50
2024/04/02 07:30:40;;;;;;;35.45;32.80;;;;;;;;;;5025572;28;20025;-54
2024/04/02 07:33:06;;;;;;;37.00;34.25;;;;;;;;;;5017488;28;20033;-54
2024/04/02 07:35:32;;;;;;;42.75;39.65;;;;;;;;;;5044457;28;20120;-53
2024/04/02 07:37:57;;;;;;;35.58;32.72;;;;;;;;;;5039750;28;20033;-50
2024/04/02 07:40:23;;;;;;;26.65;24.27;;;;;;;;;;5042207;28;20548;-53
2024/04/02 07:42:48;;;;;;;27.67;25.45;;;;;;;;;;5047599;28;20527;-55
2024/04/02 07:45:15;;;;;;;26.45;23.70;;;;;;;;;;5034745;28;20562;-52
2024/04/02 07:47:42;;;;;;;24.23;19.48;;;;;;;;;;5039746;28;20082;-53
2024/04/02 07:50:08;;;;;;;25.90;23.13;;;;;;;;;;5031960;28;20017;-54
2024/04/02 07:52:33;;;;;;;28.38;25.27;;;;;;;;;;5033642;28;20037;-52
2024/04/02 07:54:59;;;;;;;25.42;22.75;;;;;;;;;;5036963;28;20470;-52
2024/04/02 07:57:24;;;;;;;20.48;18.67;;;;;;;;;;5040643;28;20168;-52
2024/04/02 07:59:49;;;;;;;20.50;18.55;;;;;;;;;;5041519;28;20376;-48
2024/04/02 08:02:15;;;;;;;22.98;20.80;;;;;;;;;;5043093;28;20025;-53
2024/04/02 08:04:40;;;;;;;24.02;21.65;;;;;;;;;;5038838;28;20037;-52
2024/04/02 08:07:05;;;;;;;21.83;19.80;;;;;;;;;;5043792;28;20506;-53
2024/04/02 08:09:30;;;;;;;26.92;19.05;;;;;;;;;;5038966;28;20787;-51
2024/04/02 08:11:56;;;;;;;19.95;17.90;;;;;;;;;;5042114;28;20036;-54
2024/04/02 08:14:26;;;;;;;20.40;18.52;;;;;;;;;;5041366;28;20044;-49
2024/04/02 08:16:51;;;;;;;21.52;19.63;;;;;;;;;;5043552;28;20581;-51
2024/04/02 08:19:17;;;;;;;22.85;20.77;;;;;;;;;;5038973;28;20060;-51
2024/04/02 08:21:42;;;;;;;32.45;26.35;;;;;;;;;;5027950;28;20021;-53
2024/04/02 08:24:08;;;;;;;23.52;21.38;;;;;;;;;;5024462;28;20053;-54
2024/04/02 08:26:33;;;;;;;22.90;19.23;;;;;;;;;;5029404;28;20021;-55
2024/04/02 08:28:58;;;;;;;23.98;21.60;;;;;;;;;;5033352;28;20029;-51
2024/04/02 08:31:23;;;;;;;22.98;20.70;;;;;;;;;;5038102;28;20053;-49
2024/04/02 08:33:49;;;;;;;24.90;22.75;;;;;;;;;;5040969;28;20491;-57
2024/04/02 08:36:15;;;;;;;25.42;22.70;;;;;;;;;;5035657;28;20025;-54
2024/04/02 08:38:40;;;;;;;26.77;24.15;;;;;;;;;;5035137;28;20040;-57
2024/04/02 08:41:07;;;;;;;25.77;23.20;;;;;;;;;;5030403;28;20442;-58
2024/04/02 08:43:32;;;;;;;22.77;20.73;;;;;;;;;;5043443;28;20479;-55
2024/04/02 08:45:59;;;;;;;22.23;20.13;;;;;;;;;;5047770;28;20057;-58
2024/04/02 08:48:25;;;;;;;21.13;19.20;;;;;;;;;;5061196;28;20044;-59
2024/04/02 08:50:51;;;;;;;20.67;18.55;;;;;;;;;;5046276;28;20025;-59
2024/04/02 08:53:16;;;;;;;27.13;24.75;;;;;;;;;;5046598;28;20379;-56
2024/04/02 08:55:42;;;;;;;25.65;23.15;;;;;;;;;;5035351;28;20053;-59
2024/04/02 08:58:08;;;;;;;23.95;21.48;;;;;;;;;;5045175;28;21119;-58
2024/04/02 09:00:33;;;;;;;22.23;20.33;;;;;;;;;;5043212;28;20409;-55
2024/04/02 09:02:59;;;;;;;25.95;23.38;;;;;;;;;;5044317;28;20836;-58
2024/04/02 09:05:24;;;;;;;20.88;19.02;;;;;;;;;;5034300;28;20025;-56
2024/04/02 09:07:50;;;;;;;34.55;31.45;;;;;;;;;;5036865;28;20032;-52
2024/04/02 09:10:15;;;;;;;29.83;27.10;;;;;;;;;;5036796;28;20399;-51
2024/04/02 09:12:40;;;;;;;23.65;21.50;;;;;;;;;;5042827;28;20076;-48
2024/04/02 09:15:07;;;;;;;24.20;21.85;;;;;;;;;;5047659;28;20033;-54
2024/04/02 09:17:32;;;;;;;31.70;23.95;;;;;;;;;;5050912;28;20035;-55
2024/04/02 09:19:58;;;;;;;19.95;18.08;;;;;;;;;;5038849;28;20025;-55
2024/04/02 09:22:23;;;;;;;23.95;21.00;;;;;;;;;;5031737;28;20025;-52
2024/04/02 09:24:49;;;;;;;22.50;20.38;;;;;;;;;;5038544;28;20463;-54
2024/04/02 09:27:15;;;;;;;21.00;18.88;;;;;;;;;;5041093;28;20033;-52
2024/04/02 09:29:40;;;;;;;22.42;20.15;;;;;;;;;;5042320;28;20037;-56
2024/04/02 09:32:06;;;;;;;21.25;19.08;;;;;;;;;;5046483;28;20486;-52
2024/04/02 09:34:32;;;;;;;22.33;17.55;;;;;;;;;;5045916;28;20491;-55
2024/04/02 09:37:16;;;;;;;21.67;19.63;;;;;;;;;;5047712;28;20108;-52
2024/04/02 09:39:42;;;;;;;20.65;18.63;;;;;;;;;;5039415;28;20037;-56
2024/04/02 09:42:10;;;;;;;21.13;18.92;;;;;;;;;;5028123;28;20025;-55
2024/04/02 09:44:36;;;;;;;21.35;19.23;;;;;;;;;;5029256;28;20033;-50
2024/04/02 09:47:01;;;;;;;21.60;19.73;;;;;;;;;;5032465;28;20028;-54
2024/04/02 09:49:26;;;;;;;18.65;16.85;;;;;;;;;;5035974;28;20061;-52
2024/04/02 09:51:54;;;;;;;19.70;17.88;;;;;;;;;;5042728;28;20032;-56
2024/04/02 09:54:21;;;;;;;16.15;14.60;;;;;;;;;;5045462;28;20029;-56
2024/04/02 09:56:46;;;;;;;17.48;15.70;;;;;;;;;;5046539;28;20336;-56
2024/04/02 09:59:12;;;;;;;15.85;14.30;;;;;;;;;;5033337;28;20381;-55
2024/04/02 10:01:39;;;;;;;19.92;17.98;;;;;;;;;;5034388;28;20027;-52
2024/04/02 10:04:06;;;;;;;17.42;15.43;;;;;;;;;;5045179;28;20251;-56
2024/04/02 10:06:32;;;;;;;18.42;16.65;;;;;;;;;;5027317;28;20025;-54
2024/04/02 10:08:58;;;;;;;20.38;18.33;;;;;;;;;;5028432;28;20034;-57
2024/04/02 10:11:30;;;;;;;19.30;17.42;;;;;;;;;;5027522;28;20104;-53
2024/04/02 10:14:02;;;;;;;20.65;18.20;;;;;;;;;;5035081;28;20395;-52
2024/04/02 10:16:30;;;;;;;18.25;16.48;;;;;;;;;;5032728;28;20518;-57
2024/04/02 10:18:59;;;;;;;20.20;18.00;;;;;;;;;;5030128;28;20075;-54
2024/04/02 10:21:24;;;;;;;16.07;14.37;;;;;;;;;;5039743;28;20040;-52
2024/04/02 10:23:51;;;;;;;20.38;16.17;;;;;;;;;;5039221;28;20302;-54
2024/04/02 10:26:17;;;;;;;17.73;15.98;;;;;;;;;;5046756;28;20032;-50
2024/04/02 10:28:42;;;;;;;22.23;18.65;;;;;;;;;;5042739;28;20511;-55
2024/04/02 10:31:15;;;;;;;27.08;21.73;;;;;;;;;;5035468;28;20021;-53
2024/04/02 10:33:42;;;;;;;17.75;14.45;;;;;;;;;;5037499;28;20033;-56
2024/04/02 10:36:07;;;;;;;17.55;14.18;;;;;;;;;;5039367;28;20022;-54
2024/04/02 10:38:32;;;;;;;20.08;17.00;;;;;;;;;;5037820;28;20426;-54
2024/04/02 10:40:58;;;;;;;12.73;10.68;;;;;;;;;;5041898;28;20386;-55
2024/04/02 10:43:23;;;;;;;17.13;15.30;;;;;;;;;;5041111;28;20018;-53
2024/04/02 10:45:51;;;;;;;18.45;16.35;;;;;;;;;;5029066;28;20029;-53
2024/04/02 10:48:16;;;;;;;19.35;16.55;;;;;;;;;;5058245;28;20061;-51
2024/04/02 10:50:41;;;;;;;19.05;17.10;;;;;;;;;;5045896;28;20055;-56
2024/04/02 10:53:07;;;;;;;15.32;13.57;;;;;;;;;;5044241;28;20029;-51
2024/04/02 10:55:32;;;;;;;23.13;18.20;;;;;;;;;;5043093;28;20068;-54
2024/04/02 10:57:59;;;;;;;20.63;18.52;;;;;;;;;;5033405;28;20032;-54
2024/04/02 11:00:25;;;;;;;18.73;16.77;;;;;;;;;;5037510;28;20390;-53
2024/04/02 11:02:52;;;;;;;19.63;17.70;;;;;;;;;;5045333;28;20024;-56
2024/04/02 11:05:17;;;;;;;19.40;17.48;;;;;;;;;;5026503;28;20387;-55
2024/04/02 11:07:44;;;;;;;21.30;19.25;;;;;;;;;;5028030;28;20029;-51
2024/04/02 11:10:10;;;;;;;17.98;16.13;;;;;;;;;;5029484;28;20041;-51
2024/04/02 11:12:35;;;;;;;19.40;17.52;;;;;;;;;;5026213;28;20029;-55
2024/04/02 11:15:00;;;;;;;19.75;17.70;;;;;;;;;;5042392;28;20021;-51
2024/04/02 11:17:26;;;;;;;21.05;16.50;;;;;;;;;;5032493;28;20160;-56
2024/04/02 11:19:52;;;;;;;15.10;12.15;;;;;;;;;;5042451;28;20063;-55
2024/04/02 11:25:08;;;;;;;19.58;17.65;;;;;;;;;;5044030;28;20095;-52
2024/04/02 11:27:33;;;;;;;18.88;17.02;;;;;;;;;;5045636;28;20116;-52
2024/04/02 11:30:02;;;;;;;17.60;15.93;;;;;;;;;;5042833;28;20135;-54
2024/04/02 11:32:27;;;;;;;18.97;17.03;;;;;;;;;;5009835;28;20459;-54
2024/04/02 11:34:56;;;;;;;18.38;16.45;;;;;;;;;;5043266;28;20067;-52
2024/04/02 11:37:21;;;;;;;18.65;16.80;;;;;;;;;;5031385;28;20044;-51
2024/04/02 11:39:46;;;;;;;22.20;18.48;;;;;;;;;;5028962;28;20395;-52
2024/04/02 11:42:12;;;;;;;19.60;17.60;;;;;;;;;;5033555;28;20071;-56
2024/04/02 11:44:37;;;;;;;435.35;107.35;;;;;;;;;;5043398;28;20050;-53
2024/04/02 11:47:03;;;;;;;620.53;158.98;;;;;;;;;;5043737;28;20483;-50
2024/04/02 11:49:28;;;;;;;613.65;160.63;;;;;;;;;;5029629;28;20396;-57
2024/04/02 11:51:53;;;;;;;615.13;154.70;;;;;;;;;;5030301;28;20446;-56
2024/04/02 11:54:19;;;;;;;620.15;162.40;;;;;;;;;;5032966;28;20383;-53
2024/04/02 12:02:16;;;;;;;613.70;152.60;;;;;;;;;;5045378;28;20036;-52
2024/04/02 12:04:41;;;;;;;607.47;147.25;;;;;;;;;;5029023;28;20026;-53
2024/04/02 12:07:06;;;;;;;108.00;34.53;;;;;;;;;;5041664;28;20048;-54
2024/04/02 12:09:32;;;;;;;610.67;153.38;;;;;;;;;;5032549;28;20460;-59
2024/04/02 12:11:57;;;;;;;608.78;150.02;;;;;;;;;;5036932;28;20053;-53
2024/04/02 12:14:22;;;;;;;605.63;146.68;;;;;;;;;;5036086;28;20032;-57
2024/04/02 12:16:48;;;;;;;604.70;146.65;;;;;;;;;;5029217;28;20726;-51
2024/04/02 12:19:13;;;;;;;603.40;144.48;;;;;;;;;;5030596;28;20116;-57
2024/04/02 12:21:38;;;;;;;608.05;145.95;;;;;;;;;;5047850;28;20404;-56
2024/04/02 12:24:04;;;;;;;611.95;147.43;;;;;;;;;;5039338;28;20056;-58
2024/04/02 12:26:29;;;;;;;604.08;141.18;;;;;;;;;;5036379;28;20086;-56
2024/04/02 12:28:54;;;;;;;605.15;140.20;;;;;;;;;;5040328;28;20037;-52
2024/04/02 12:31:19;;;;;;;610.03;144.73;;;;;;;;;;5043870;28;20021;-52
2024/04/02 12:33:45;;;;;;;602.72;141.30;;;;;;;;;;5041377;28;21113;-52
2024/04/02 12:36:10;;;;;;;411.83;104.72;;;;;;;;;;5041695;28;20482;-56
2024/04/02 12:38:35;;;;;;;607.28;149.75;;;;;;;;;;5033199;28;20037;-55
2024/04/02 12:41:01;;;;;;;408.65;103.20;;;;;;;;;;5034481;28;20031;-52
2024/04/02 12:43:27;;;;;;;612.72;153.48;;;;;;;;;;5041017;28;20049;-50
2024/04/02 12:45:52;;;;;;;610.78;149.52;;;;;;;;;;5029807;28;20025;-52
2024/04/02 12:48:18;;;;;;;610.30;152.48;;;;;;;;;;5044273;28;20029;-52
2024/04/02 12:50:51;;;;;;;613.17;151.15;;;;;;;;;;5060901;28;20036;-54
2024/04/02 12:53:16;;;;;;;619.30;161.60;;;;;;;;;;5040249;28;20117;-57
2024/04/02 12:55:41;;;;;;;606.00;149.38;;;;;;;;;;5039645;28;20542;-57
2024/04/02 12:58:06;;;;;;;610.58;150.30;;;;;;;;;;5041439;28;20037;-53
2024/04/02 13:00:37;;;;;;;609.05;144.32;;;;;;;;;;5032374;28;20507;-55
2024/04/02 13:03:02;;;;;;;608.42;145.35;;;;;;;;;;5055818;28;20029;-57
2024/04/02 13:05:33;;;;;;;21.08;19.10;;;;;;;;;;5059174;28;20139;-56
2024/04/02 13:07:59;;;;;;;23.20;21.00;;;;;;;;;;5061545;28;20567;-52
2024/04/02 13:10:24;;;;;;;20.42;18.33;;;;;;;;;;5058630;28;20016;-53
2024/04/02 13:12:49;;;;;;;28.33;23.95;;;;;;;;;;5051663;28;20123;-56
2024/04/02 13:15:15;;;;;;;24.60;22.13;;;;;;;;;;5056709;28;20033;-51
2024/04/02 13:17:40;;;;;;;22.73;20.10;;;;;;;;;;5050095;28;20088;-55
2024/04/02 13:20:07;;;;;;;19.17;17.23;;;;;;;;;;5059650;28;20394;-55
2024/04/02 13:22:33;;;;;;;21.08;19.00;;;;;;;;;;5060785;28;20043;-56
2024/04/02 13:24:58;;;;;;;32.03;26.30;;;;;;;;;;5009272;28;20052;-57
2024/04/02 13:27:23;;;;;;;23.08;20.73;;;;;;;;;;5056263;28;20086;-57
2024/04/02 13:29:51;;;;;;;20.38;18.42;;;;;;;;;;5049051;28;20091;-52
2024/04/02 13:32:16;;;;;;;18.85;17.10;;;;;;;;;;5061142;28;20040;-58
2024/04/02 13:34:43;;;;;;;20.38;18.33;;;;;;;;;;5047298;28;20055;-52
2024/04/02 13:37:10;;;;;;;24.63;22.20;;;;;;;;;;5043777;28;20033;-56
2024/04/02 13:39:36;;;;;;;23.35;21.00;;;;;;;;;;5044361;28;20087;-53
2024/04/02 13:42:02;;;;;;;20.75;18.60;;;;;;;;;;5038506;28;20433;-56
2024/04/02 13:44:28;;;;;;;23.05;20.85;;;;;;;;;;5034335;28;20028;-57
2024/04/02 13:46:53;;;;;;;20.40;18.33;;;;;;;;;;5042707;28;20028;-56
2024/04/02 13:49:18;;;;;;;19.52;17.67;;;;;;;;;;5043025;28;20029;-58
2024/04/02 13:51:44;;;;;;;23.42;20.33;;;;;;;;;;5044187;28;20013;-56
2024/04/02 13:54:09;;;;;;;22.52;20.30;;;;;;;;;;5037901;28;20016;-58
2024/04/02 13:56:34;;;;;;;18.75;16.30;;;;;;;;;;5042728;28;20510;-56
2024/04/02 13:59:00;;;;;;;24.45;20.60;;;;;;;;;;5036421;28;20105;-55
2024/04/02 14:01:25;;;;;;;31.00;22.23;;;;;;;;;;5030925;28;20697;-52
2024/04/02 14:03:50;;;;;;;22.25;19.90;;;;;;;;;;5037692;28;20024;-55
2024/04/02 14:06:15;;;;;;;25.92;23.35;;;;;;;;;;5037110;28;20024;-58
2024/04/02 14:08:41;;;;;;;21.92;19.60;;;;;;;;;;5040377;28;20609;-56
2024/04/02 14:11:13;;;;;;;24.27;22.00;;;;;;;;;;5042317;28;20127;-56
2024/04/02 14:13:42;;;;;;;26.92;24.40;;;;;;;;;;5038071;28;20056;-56
2024/04/02 14:16:09;;;;;;;24.67;22.33;;;;;;;;;;5037406;28;20040;-58